Brunswick, Maine
Current Conditions -  °F | °C
As of 1:06 AM on Wednesday 28 Jan 2015 (Local Time) from KIWI Reporting Station
Light Snow Light Snow  
Wind Chill:   Ceiling: 1300
Heat Index: 13°   Visibility: 1mi
Dew Point:   Wind: 8mph
Humidity: 81%   Direction: 340°NNW
Pressure: 29.62"   Gusts: 18mph
Location:  43.92°N, 69.96°W
Report Text: KIWI 280606Z AUTO 34007G16KT 290V020 1SM -SN VV013 M11/M13 A2962 RMK AO2 P0000 T11061133
Loading
Personal Weather Stations






























Interactive Weather Map New forecast layout! Learn more

10-Day Weather Forecast

Advertisements
Track Severe Weather on mobile